Rushville, Nebraska
Current Conditions -  °F | °C
As of 9:52 PM on Friday 24 Oct 2014 (Local Time) from KIEN Reporting Station
Clear Clear  
Wind Chill:   Ceiling: Unl
Heat Index:   Visibility: 10mi
Dew Point:   Wind: 5mph
Humidity: 83%   Direction: 90°E
Pressure: 30.1"   Gusts: NA
Location:  42.72°N, 102.46°W
Report Text: KIEN 250352Z AUTO 09004KT 10SM CLR 04/02 A3010 RMK AO2 SLP192 T00440017
Loading
Personal Weather Stations






























Interactive Weather Map
Tropical Storm Tracking
New forecast layout! Learn more

10-Day Weather Forecast

Advertisements
Track Severe Weather on mobile